»·PEaware :: DAL775 KDEN-KLAS

DAL775 :: KDEN-KLAS

FLIGHT INFORMATION

Flight Status: Arrived
Operator:
Delta Air Lines
More flights by this operator :: More flights under this callsign
Pilot: Kevin M. (7)
Aircraft: BOEING 737-800
(B738)
More flights by this aircraft type
Origin: KDEN Denver Intl
United States
Destination: KLAS McCarran Intl
United States
More flights between these airports :: More routes between these airports
Route: CONNR5 DBL J60 HVE GGAPP SITEE4
File this flight plan on PilotEdge
Remarks:
Altitude:
(Current/Filed)
36,000ft
Speed:
(Current/Filed)
468kts
Departed: 27-Aug-19 10:47 AM
Arrived: 27-Aug-19 12:08 PM
Distance/Time
Traveled:
544nm/1:21
Distance/Time
To Go:
Arrived

Flight Plot

Page will automatically refresh every two minutes.

Flight plan parsing failed; only flown route is shown


Map Options




Map Legend


Flown Route
Filed Route
Departure Airport
Arrival Airport
Navaid (VOR, NDB)
Fix

Horizontal Profiles

Position Reports

Time Latitude Longitude Heading Altitude Ground
Speed
27-Aug-19 10:30 39.853327 -104.674626 358 5390ft 0kts
27-Aug-19 10:31 39.853327 -104.674626 358 5390ft 0kts
27-Aug-19 10:32 39.853327 -104.674626 358 5390ft 0kts
27-Aug-19 10:33 39.853327 -104.674626 358 5390ft 0kts
27-Aug-19 10:34 39.853327 -104.674626 358 5390ft 0kts
27-Aug-19 10:35 39.853327 -104.674626 358 5390ft 0kts
27-Aug-19 10:36 39.853327 -104.674626 358 5390ft 0kts
27-Aug-19 10:37 39.853171 -104.674621 358 5390ft 2kts
27-Aug-19 10:38 39.852764 -104.674429 270 5391ft 0kts
27-Aug-19 10:39 39.852766 -104.674359 270 5392ft 0kts
27-Aug-19 10:40 39.852766 -104.674359 270 5392ft 0kts
27-Aug-19 10:41 39.852766 -104.674359 270 5392ft 0kts
27-Aug-19 10:42 39.852803 -104.676437 270 5374ft 24kts
27-Aug-19 10:43 39.851783 -104.684038 181 5318ft 17kts
27-Aug-19 10:44 39.844286 -104.684138 180 5303ft 30kts
27-Aug-19 10:45 39.840667 -104.685287 270 5318ft 17kts
27-Aug-19 10:46 39.840869 -104.729407 269 5887ft 185kts
27-Aug-19 10:47 39.839069 -104.802632 268 7343ft 238kts
27-Aug-19 10:48 39.838305 -104.900298 270 9266ft 283kts
27-Aug-19 10:49 39.837466 -105.010111 264 10857ft 337kts
27-Aug-19 10:50 39.810945 -105.140019 255 12115ft 396kts
27-Aug-19 10:51 39.780657 -105.279722 256 15127ft 407kts
27-Aug-19 10:52 39.750225 -105.423369 257 18166ft 419kts
27-Aug-19 10:53 39.718329 -105.571618 258 20891ft 432kts
27-Aug-19 10:54 39.691804 -105.725452 264 23415ft 440kts
27-Aug-19 10:55 39.674533 -105.884331 265 25813ft 451kts
27-Aug-19 10:56 39.656502 -106.046255 265 28489ft 452kts
27-Aug-19 10:57 39.638540 -106.204726 266 31625ft 437kts
27-Aug-19 10:58 39.613330 -106.356390 255 34271ft 434kts
27-Aug-19 10:59 39.567624 -106.499346 254 36290ft 428kts
27-Aug-19 11:00 39.521991 -106.641047 254 36349ft 424kts
27-Aug-19 11:01 39.476372 -106.781891 254 36369ft 425kts
27-Aug-19 11:02 39.430337 -106.923076 253 36350ft 429kts
27-Aug-19 11:03 39.382714 -107.065593 252 36359ft 434kts
27-Aug-19 11:04 39.334706 -107.208243 252 36365ft 433kts
27-Aug-19 11:05 39.286600 -107.350447 252 36343ft 434kts
27-Aug-19 11:06 39.238165 -107.492932 252 36282ft 434kts
27-Aug-19 11:07 39.189522 -107.635385 252 36260ft 434kts
27-Aug-19 11:08 39.140707 -107.777480 251 36258ft 434kts
27-Aug-19 11:09 39.091790 -107.919298 251 36238ft 434kts
27-Aug-19 11:10 39.042709 -108.061051 251 36228ft 434kts
27-Aug-19 11:12 38.993264 -108.203306 251 36219ft 437kts
27-Aug-19 11:13 38.943465 -108.345960 250 36217ft 440kts
27-Aug-19 11:14 38.892973 -108.489950 249 36206ft 443kts
27-Aug-19 11:15 38.842119 -108.634295 249 36204ft 444kts
27-Aug-19 11:16 38.791677 -108.776670 249 36210ft 444kts
27-Aug-19 11:17 38.740415 -108.920734 249 36210ft 445kts
27-Aug-19 11:18 38.688941 -109.064801 248 36206ft 445kts
27-Aug-19 11:19 38.637422 -109.208386 248 36184ft 447kts
27-Aug-19 11:20 38.585411 -109.352682 248 36180ft 447kts
27-Aug-19 11:21 38.533246 -109.496763 248 36179ft 447kts
27-Aug-19 11:22 38.480867 -109.640783 248 36179ft 447kts
27-Aug-19 11:23 38.428277 -109.784571 247 36184ft 447kts
27-Aug-19 11:24 38.375548 -109.928073 247 36183ft 447kts
27-Aug-19 11:25 38.322789 -110.071028 247 36187ft 447kts
27-Aug-19 11:26 38.269764 -110.214065 247 36197ft 447kts
27-Aug-19 11:27 38.216521 -110.357043 247 36199ft 447kts
27-Aug-19 11:27 38.172069 -110.475923 247 36199ft 447kts
27-Aug-19 11:29 38.109819 -110.641647 247 36198ft 447kts
27-Aug-19 11:30 38.055851 -110.784457 246 36204ft 448kts
27-Aug-19 11:30 38.010923 -110.902817 246 36203ft 448kts
27-Aug-19 11:32 37.947845 -111.068261 246 36201ft 447kts
27-Aug-19 11:33 37.893761 -111.209451 246 36255ft 447kts
27-Aug-19 11:33 37.848531 -111.327053 246 36348ft 446kts
27-Aug-19 11:34 37.794004 -111.468251 246 36390ft 447kts
27-Aug-19 11:36 37.730304 -111.632391 246 36389ft 446kts
27-Aug-19 11:36 37.684469 -111.749846 245 36394ft 447kts
27-Aug-19 11:37 37.629359 -111.890440 245 36394ft 447kts
27-Aug-19 11:38 37.574290 -112.030315 245 36393ft 447kts
27-Aug-19 11:39 37.517332 -112.169364 241 36393ft 448kts
27-Aug-19 11:40 37.452972 -112.303771 241 36391ft 448kts
27-Aug-19 11:41 37.388530 -112.437684 241 36282ft 448kts
27-Aug-19 11:42 37.324022 -112.571295 241 36200ft 448kts
27-Aug-19 11:43 37.259261 -112.704921 240 36203ft 449kts
27-Aug-19 11:44 37.194272 -112.838439 240 36202ft 449kts
27-Aug-19 11:45 37.128827 -112.972431 240 36201ft 451kts
27-Aug-19 11:46 37.063143 -113.106421 239 36173ft 452kts
27-Aug-19 11:47 36.999007 -113.236747 238 36101ft 425kts
27-Aug-19 11:48 36.936145 -113.364036 238 36070ft 431kts
27-Aug-19 11:49 36.874102 -113.489208 238 34938ft 436kts
27-Aug-19 11:50 36.808601 -113.620863 237 31137ft 443kts
27-Aug-19 11:51 36.743667 -113.750822 236 27235ft 456kts
27-Aug-19 11:52 36.676618 -113.884492 236 24458ft 441kts
27-Aug-19 11:53 36.613081 -114.010704 236 21708ft 422kts
27-Aug-19 11:54 36.551177 -114.132903 236 19049ft 426kts
27-Aug-19 11:55 36.489096 -114.254356 236 16361ft 406kts
27-Aug-19 11:56 36.429833 -114.369886 236 13878ft 388kts
27-Aug-19 11:57 36.373404 -114.479554 236 11992ft 358kts
27-Aug-19 11:58 36.322631 -114.578157 236 10862ft 324kts
27-Aug-19 11:59 36.275689 -114.669271 236 9710ft 304kts
27-Aug-19 12:00 36.229511 -114.758738 236 8104ft 298kts
27-Aug-19 12:01 36.204538 -114.848283 259 7755ft 255kts
27-Aug-19 12:02 36.192444 -114.932148 259 7074ft 236kts
27-Aug-19 12:03 36.181793 -115.009920 258 5612ft 225kts
27-Aug-19 12:04 36.168547 -115.080241 252 4035ft 201kts
27-Aug-19 12:05 36.143003 -115.128638 201 2797ft 158kts
27-Aug-19 12:06 36.102528 -115.151263 203 2245ft 160kts
27-Aug-19 12:07 36.078096 -115.165138 148 2166ft 13kts
27-Aug-19 12:08 36.078018 -115.161952 90 2157ft 23kts
27-Aug-19 12:09 36.077979 -115.150315 94 2115ft 36kts
27-Aug-19 12:10 36.078859 -115.141638 2 2084ft 16kts
27-Aug-19 12:11 36.079891 -115.140445 58 2079ft 0kts

Navigation Log

Ident Type
Flight plan parsing failed, navigation log unavailable